sensor_id;sensor_type;location;lat;lon;timestamp;pressure;altitude;pressure_sealevel;temperature;humidity
47785;BME280;35233;55.686;37.848;2022-12-18T00:01:36;99270.94;;;7.10;54.34
47785;BME280;35233;55.686;37.848;2022-12-18T00:04:04;99257.88;;;7.07;55.05
47785;BME280;35233;55.686;37.848;2022-12-18T00:06:31;99256.16;;;7.06;54.78
47785;BME280;35233;55.686;37.848;2022-12-18T00:08:58;99250.06;;;7.05;54.57
47785;BME280;35233;55.686;37.848;2022-12-18T00:11:27;99239.69;;;6.99;54.78
47785;BME280;35233;55.686;37.848;2022-12-18T00:13:56;99243.94;;;7.05;54.38
47785;BME280;35233;55.686;37.848;2022-12-18T00:16:24;99237.84;;;7.02;54.90
47785;BME280;35233;55.686;37.848;2022-12-18T00:18:52;99235.22;;;7.01;54.57
47785;BME280;35233;55.686;37.848;2022-12-18T00:21:18;99223.00;;;7.01;54.87
47785;BME280;35233;55.686;37.848;2022-12-18T00:23:46;99223.84;;;7.02;54.91
47785;BME280;35233;55.686;37.848;2022-12-18T00:26:19;99227.34;;;7.01;54.47
47785;BME280;35233;55.686;37.848;2022-12-18T00:28:46;99217.75;;;7.01;55.02
47785;BME280;35233;55.686;37.848;2022-12-18T00:31:15;99214.34;;;6.95;54.92
47785;BME280;35233;55.686;37.848;2022-12-18T00:33:42;99211.59;;;7.01;54.70
47785;BME280;35233;55.686;37.848;2022-12-18T00:36:11;99204.75;;;6.94;54.66
47785;BME280;35233;55.686;37.848;2022-12-18T00:38:37;99190.84;;;6.89;54.31
47785;BME280;35233;55.686;37.848;2022-12-18T00:41:04;99194.13;;;7.00;54.40
47785;BME280;35233;55.686;37.848;2022-12-18T00:43:29;99191.59;;;6.95;54.43
47785;BME280;35233;55.686;37.848;2022-12-18T00:45:55;99185.59;;;6.90;55.11
47785;BME280;35233;55.686;37.848;2022-12-18T00:48:21;99191.69;;;6.92;54.63
47785;BME280;35233;55.686;37.848;2022-12-18T00:50:50;99169.91;;;6.86;54.29
47785;BME280;35233;55.686;37.848;2022-12-18T00:53:16;99171.66;;;6.87;54.78
47785;BME280;35233;55.686;37.848;2022-12-18T00:55:42;99167.16;;;6.92;54.83
47785;BME280;35233;55.686;37.848;2022-12-18T00:58:09;99161.97;;;6.89;54.72
47785;BME280;35233;55.686;37.848;2022-12-18T01:00:35;99160.19;;;6.89;54.82
47785;BME280;35233;55.686;37.848;2022-12-18T01:03:01;99159.34;;;6.89;54.67
47785;BME280;35233;55.686;37.848;2022-12-18T01:05:27;99147.97;;;6.88;54.63
47785;BME280;35233;55.686;37.848;2022-12-18T01:07:52;99144.59;;;6.83;54.82
47785;BME280;35233;55.686;37.848;2022-12-18T01:10:18;99141.09;;;6.84;54.20
47785;BME280;35233;55.686;37.848;2022-12-18T01:12:44;99141.03;;;6.86;54.33
47785;BME280;35233;55.686;37.848;2022-12-18T01:15:12;99115.03;;;6.75;54.22
47785;BME280;35233;55.686;37.848;2022-12-18T01:17:38;99124.50;;;6.80;54.13
47785;BME280;35233;55.686;37.848;2022-12-18T01:20:04;99127.03;;;6.85;54.00
47785;BME280;35233;55.686;37.848;2022-12-18T01:22:30;99130.56;;;6.84;54.55
47785;BME280;35233;55.686;37.848;2022-12-18T01:24:55;99135.78;;;6.86;54.64
47785;BME280;35233;55.686;37.848;2022-12-18T01:27:21;99132.34;;;6.84;54.06
47785;BME280;35233;55.686;37.848;2022-12-18T01:29:47;99135.06;;;6.79;54.28
47785;BME280;35233;55.686;37.848;2022-12-18T01:32:12;99120.31;;;6.73;54.01
47785;BME280;35233;55.686;37.848;2022-12-18T01:34:38;99130.66;;;6.81;54.16
47785;BME280;35233;55.686;37.848;2022-12-18T01:37:04;99126.31;;;6.78;54.12
47785;BME280;35233;55.686;37.848;2022-12-18T01:39:31;99130.66;;;6.81;54.48
47785;BME280;35233;55.686;37.848;2022-12-18T01:42:01;99127.09;;;6.84;54.35
47785;BME280;35233;55.686;37.848;2022-12-18T01:44:57;99122.78;;;6.81;54.17
47785;BME280;35233;55.686;37.848;2022-12-18T01:47:36;99125.47;;;6.76;54.49
47785;BME280;35233;55.686;37.848;2022-12-18T01:52:37;99110.63;;;6.75;54.02
47785;BME280;35233;55.686;37.848;2022-12-18T01:55:06;99120.22;;;6.76;54.24
47785;BME280;35233;55.686;37.848;2022-12-18T01:57:32;99120.31;;;6.73;54.58
47785;BME280;35233;55.686;37.848;2022-12-18T02:00:01;99117.69;;;6.72;54.29
47785;BME280;35233;55.686;37.848;2022-12-18T02:02:30;99101.16;;;6.68;54.25
47785;BME280;35233;55.686;37.848;2022-12-18T02:04:55;99104.69;;;6.66;53.96
47785;BME280;35233;55.686;37.848;2022-12-18T02:13:37;99093.31;;;6.67;54.37
47785;BME280;35233;55.686;37.848;2022-12-18T02:18:49;99102.00;;;6.70;53.87
47785;BME280;35233;55.686;37.848;2022-12-18T02:26:55;99119.53;;;6.68;54.66
47785;BME280;35233;55.686;37.848;2022-12-18T02:29:24;99103.75;;;6.70;53.98
47785;BME280;35233;55.686;37.848;2022-12-18T02:31:56;99084.69;;;6.62;53.90
47785;BME280;35233;55.686;37.848;2022-12-18T02:34:27;99086.31;;;6.67;54.33
47785;BME280;35233;55.686;37.848;2022-12-18T02:36:55;99086.31;;;6.67;54.64
47785;BME280;35233;55.686;37.848;2022-12-18T02:39:23;99094.19;;;6.66;54.16
47785;BME280;35233;55.686;37.848;2022-12-18T02:41:50;99092.56;;;6.60;54.29
47785;BME280;35233;55.686;37.848;2022-12-18T02:44:16;99098.78;;;6.56;54.01
47785;BME280;35233;55.686;37.848;2022-12-18T02:46:45;99108.31;;;6.60;53.66
47785;BME280;35233;55.686;37.848;2022-12-18T02:54:38;99108.31;;;6.60;54.40
47785;BME280;35233;55.686;37.848;2022-12-18T02:57:16;99107.59;;;6.53;53.99
47785;BME280;35233;55.686;37.848;2022-12-18T03:00:18;99104.97;;;6.53;54.27
47785;BME280;35233;55.686;37.848;2022-12-18T03:03:07;99102.28;;;6.56;54.28
47785;BME280;35233;55.686;37.848;2022-12-18T03:05:47;99101.41;;;6.56;53.85
47785;BME280;35233;55.686;37.848;2022-12-18T03:08:21;99084.09;;;6.49;53.68
47785;BME280;35233;55.686;37.848;2022-12-18T03:11:09;99090.97;;;6.53;53.96
47785;BME280;35233;55.686;37.848;2022-12-18T03:13:45;99075.31;;;6.50;53.69
47785;BME280;35233;55.686;37.848;2022-12-18T03:16:16;99080.50;;;6.53;53.94
47785;BME280;35233;55.686;37.848;2022-12-18T03:18:49;99072.69;;;6.50;54.53
47785;BME280;35233;55.686;37.848;2022-12-18T03:21:19;99083.13;;;6.53;53.77
47785;BME280;35233;55.686;37.848;2022-12-18T03:23:48;99088.44;;;6.48;54.00
47785;BME280;35233;55.686;37.848;2022-12-18T03:26:19;99102.47;;;6.49;54.33
47785;BME280;35233;55.686;37.848;2022-12-18T03:28:50;99114.66;;;6.50;53.82
47785;BME280;35233;55.686;37.848;2022-12-18T03:31:23;99105.94;;;6.49;54.35
47785;BME280;35233;55.686;37.848;2022-12-18T03:33:58;99112.00;;;6.51;54.44
47785;BME280;35233;55.686;37.848;2022-12-18T03:36:25;99107.78;;;6.43;54.24
47785;BME280;35233;55.686;37.848;2022-12-18T03:38:51;99095.56;;;6.43;53.59
47785;BME280;35233;55.686;37.848;2022-12-18T03:41:33;99095.53;;;6.45;53.97
47785;BME280;35233;55.686;37.848;2022-12-18T03:49:43;99099.91;;;6.44;53.63
47785;BME280;35233;55.686;37.848;2022-12-18T03:52:17;99093.81;;;6.44;54.10
47785;BME280;35233;55.686;37.848;2022-12-18T03:54:46;99087.78;;;6.39;53.21
47785;BME280;35233;55.686;37.848;2022-12-18T03:57:24;99086.78;;;6.44;53.83
47785;BME280;35233;55.686;37.848;2022-12-18T03:59:55;99091.19;;;6.44;53.45
47785;BME280;35233;55.686;37.848;2022-12-18T04:02:23;99092.13;;;6.40;53.74
47785;BME280;35233;55.686;37.848;2022-12-18T04:04:55;99100.78;;;6.45;53.79
47785;BME280;35233;55.686;37.848;2022-12-18T04:07:23;99084.25;;;6.40;53.87
47785;BME280;35233;55.686;37.848;2022-12-18T04:09:53;99095.72;;;6.35;53.62
47785;BME280;35233;55.686;37.848;2022-12-18T04:12:20;99112.28;;;6.38;53.95
47785;BME280;35233;55.686;37.848;2022-12-18T04:14:46;99107.06;;;6.38;54.15
47785;BME280;35233;55.686;37.848;2022-12-18T04:17:11;99094.78;;;6.38;53.71
47785;BME280;35233;55.686;37.848;2022-12-18T04:19:37;99104.44;;;6.36;53.66
47785;BME280;35233;55.686;37.848;2022-12-18T04:22:02;99108.81;;;6.37;54.08
47785;BME280;35233;55.686;37.848;2022-12-18T04:24:28;99120.16;;;6.38;53.75
47785;BME280;35233;55.686;37.848;2022-12-18T04:26:54;99128.97;;;6.33;53.25
47785;BME280;35233;55.686;37.848;2022-12-18T04:29:19;99137.94;;;6.23;54.00
47785;BME280;35233;55.686;37.848;2022-12-18T04:31:45;99149.09;;;6.33;53.95
47785;BME280;35233;55.686;37.848;2022-12-18T04:34:10;99143.78;;;6.38;53.88
47785;BME280;35233;55.686;37.848;2022-12-18T04:36:36;99143.06;;;6.29;53.67
47785;BME280;35233;55.686;37.848;2022-12-18T04:39:02;99148.31;;;6.29;53.69
47785;BME280;35233;55.686;37.848;2022-12-18T04:41:27;99142.19;;;6.29;53.59
47785;BME280;35233;55.686;37.848;2022-12-18T04:43:53;99157.09;;;6.27;53.66
47785;BME280;35233;55.686;37.848;2022-12-18T04:46:18;99163.13;;;6.32;53.57
47785;BME280;35233;55.686;37.848;2022-12-18T04:48:45;99177.16;;;6.29;53.60
47785;BME280;35233;55.686;37.848;2022-12-18T04:51:12;99177.09;;;6.32;53.70
47785;BME280;35233;55.686;37.848;2022-12-18T04:53:38;99187.72;;;6.25;53.53
47785;BME280;35233;55.686;37.848;2022-12-18T04:56:09;99187.72;;;6.25;53.92
47785;BME280;35233;55.686;37.848;2022-12-18T04:58:36;99201.78;;;6.21;53.60
47785;BME280;35233;55.686;37.848;2022-12-18T05:01:02;99204.38;;;6.24;53.69
47785;BME280;35233;55.686;37.848;2022-12-18T05:03:27;99216.63;;;6.23;53.65
47785;BME280;35233;55.686;37.848;2022-12-18T05:05:56;99226.13;;;6.29;53.72
47785;BME280;35233;55.686;37.848;2022-12-18T05:08:22;99224.50;;;6.22;53.76
47785;BME280;35233;55.686;37.848;2022-12-18T05:10:47;99211.38;;;6.23;52.96
47785;BME280;35233;55.686;37.848;2022-12-18T05:13:13;99220.91;;;6.27;53.36
47785;BME280;35233;55.686;37.848;2022-12-18T05:15:41;99193.06;;;6.20;53.62
47785;BME280;35233;55.686;37.848;2022-12-18T05:18:07;99218.34;;;6.24;53.66
47785;BME280;35233;55.686;37.848;2022-12-18T05:20:33;99213.16;;;6.21;54.03
47785;BME280;35233;55.686;37.848;2022-12-18T05:22:58;99200.94;;;6.20;53.68
47785;BME280;35233;55.686;37.848;2022-12-18T05:25:24;99201.84;;;6.18;53.32
47785;BME280;35233;55.686;37.848;2022-12-18T05:27:49;99209.63;;;6.22;53.94
47785;BME280;35233;55.686;37.848;2022-12-18T05:30:15;99214.06;;;6.19;53.78
47785;BME280;35233;55.686;37.848;2022-12-18T05:32:41;99214.91;;;6.19;53.69
47785;BME280;35233;55.686;37.848;2022-12-18T05:35:09;99231.56;;;6.18;53.86
47785;BME280;35233;55.686;37.848;2022-12-18T05:37:35;99232.41;;;6.20;53.56
47785;BME280;35233;55.686;37.848;2022-12-18T05:40:02;99239.47;;;6.15;53.56
47785;BME280;35233;55.686;37.848;2022-12-18T05:42:28;99244.78;;;6.12;53.90
47785;BME280;35233;55.686;37.848;2022-12-18T05:44:53;99260.47;;;6.13;53.47
47785;BME280;35233;55.686;37.848;2022-12-18T05:47:19;99262.25;;;6.13;52.98
47785;BME280;35233;55.686;37.848;2022-12-18T05:49:44;99248.38;;;6.08;53.15
47785;BME280;35233;55.686;37.848;2022-12-18T05:52:10;99249.28;;;6.05;53.43
47785;BME280;35233;55.686;37.848;2022-12-18T05:54:35;99268.34;;;6.15;53.79
47785;BME280;35233;55.686;37.848;2022-12-18T05:57:00;99263.19;;;6.07;53.37
47785;BME280;35233;55.686;37.848;2022-12-18T05:59:26;99264.09;;;6.08;53.39
47785;BME280;35233;55.686;37.848;2022-12-18T06:01:52;99277.06;;;6.17;52.72
47785;BME280;35233;55.686;37.848;2022-12-18T06:04:17;99285.78;;;6.18;52.65
47785;BME280;35233;55.686;37.848;2022-12-18T06:06:43;99260.56;;;6.07;53.15
47785;BME280;35233;55.686;37.848;2022-12-18T06:09:08;99295.41;;;6.17;53.34
47785;BME280;35233;55.686;37.848;2022-12-18T06:11:36;99290.22;;;6.12;53.22
47785;BME280;35233;55.686;37.848;2022-12-18T06:14:05;99298.09;;;6.12;53.21
47785;BME280;35233;55.686;37.848;2022-12-18T06:16:31;99306.00;;;6.11;52.92
47785;BME280;35233;55.686;37.848;2022-12-18T06:18:58;99309.44;;;6.13;53.07
47785;BME280;35233;55.686;37.848;2022-12-18T06:21:23;99304.16;;;6.16;53.01
47785;BME280;35233;55.686;37.848;2022-12-18T06:23:49;99269.53;;;5.93;52.53
47785;BME280;35233;55.686;37.848;2022-12-18T06:26:15;99310.22;;;6.20;52.80
47785;BME280;35233;55.686;37.848;2022-12-18T06:28:41;99294.66;;;6.07;53.08
47785;BME280;35233;55.686;37.848;2022-12-18T06:31:07;99308.56;;;6.14;53.26
47785;BME280;35233;55.686;37.848;2022-12-18T06:33:33;99315.50;;;6.18;52.62
47785;BME280;35233;55.686;37.848;2022-12-18T06:36:01;99319.88;;;6.18;52.90
47785;BME280;35233;55.686;37.848;2022-12-18T06:38:27;99321.53;;;6.22;52.78
47785;BME280;35233;55.686;37.848;2022-12-18T06:40:53;99313.66;;;6.23;52.55
47785;BME280;35233;55.686;37.848;2022-12-18T06:43:18;99300.81;;;6.06;52.19
47785;BME280;35233;55.686;37.848;2022-12-18T06:45:44;99333.81;;;6.21;52.85
47785;BME280;35233;55.686;37.848;2022-12-18T06:48:09;99333.84;;;6.17;52.69
47785;BME280;35233;55.686;37.848;2022-12-18T06:50:35;99353.88;;;6.22;52.64
47785;BME280;35233;55.686;37.848;2022-12-18T06:53:00;99358.31;;;6.20;52.90
47785;BME280;35233;55.686;37.848;2022-12-18T06:55:26;99358.16;;;6.28;52.27
47785;BME280;35233;55.686;37.848;2022-12-18T06:57:51;99373.94;;;6.26;52.23
47785;BME280;35233;55.686;37.848;2022-12-18T07:00:20;99383.53;;;6.27;52.66
47785;BME280;35233;55.686;37.848;2022-12-18T07:02:45;99390.44;;;6.33;52.86
47785;BME280;35233;55.686;37.848;2022-12-18T07:05:11;99389.53;;;6.34;52.31
47785;BME280;35233;55.686;37.848;2022-12-18T07:07:37;99389.59;;;6.32;52.47
47785;BME280;35233;55.686;37.848;2022-12-18T07:10:03;99387.94;;;6.25;52.40
47785;BME280;35233;55.686;37.848;2022-12-18T07:12:28;99393.13;;;6.30;52.57
47785;BME280;35233;55.686;37.848;2022-12-18T07:14:54;99396.50;;;6.38;52.29
47785;BME280;35233;55.686;37.848;2022-12-18T07:17:20;99399.13;;;6.38;52.19
47785;BME280;35233;55.686;37.848;2022-12-18T07:19:45;99385.19;;;6.34;52.65
47785;BME280;35233;55.686;37.848;2022-12-18T07:22:11;99402.59;;;6.40;52.96
47785;BME280;35233;55.686;37.848;2022-12-18T07:24:36;99406.13;;;6.36;52.77
47785;BME280;35233;55.686;37.848;2022-12-18T07:27:02;99415.72;;;6.39;52.66
47785;BME280;35233;55.686;37.848;2022-12-18T07:29:27;99411.28;;;6.42;52.51
47785;BME280;35233;55.686;37.848;2022-12-18T07:31:53;99419.19;;;6.41;52.32
47785;BME280;35233;55.686;37.848;2022-12-18T07:34:19;99430.50;;;6.44;52.70
47785;BME280;35233;55.686;37.848;2022-12-18T07:36:44;99434.03;;;6.43;52.32
47785;BME280;35233;55.686;37.848;2022-12-18T07:39:11;99439.25;;;6.45;52.26
47785;BME280;35233;55.686;37.848;2022-12-18T07:41:37;99440.97;;;6.47;52.44
47785;BME280;35233;55.686;37.848;2022-12-18T07:44:02;99444.50;;;6.46;52.09
47785;BME280;35233;55.686;37.848;2022-12-18T07:46:28;99452.22;;;6.54;52.96
47785;BME280;35233;55.686;37.848;2022-12-18T07:48:53;99457.50;;;6.52;52.61
47785;BME280;35233;55.686;37.848;2022-12-18T07:51:19;99456.66;;;6.50;52.54
47785;BME280;35233;55.686;37.848;2022-12-18T07:53:44;99459.28;;;6.52;52.39
47785;BME280;35233;55.686;37.848;2022-12-18T07:56:11;99455.81;;;6.50;52.36
47785;BME280;35233;55.686;37.848;2022-12-18T07:58:37;99454.91;;;6.51;52.23
47785;BME280;35233;55.686;37.848;2022-12-18T08:01:11;99454.91;;;6.51;52.03
47785;BME280;35233;55.686;37.848;2022-12-18T08:03:38;99453.13;;;6.54;52.49
47785;BME280;35233;55.686;37.848;2022-12-18T08:06:06;99455.00;;;6.45;52.89
47785;BME280;35233;55.686;37.848;2022-12-18T08:08:32;99459.28;;;6.52;52.76
47785;BME280;35233;55.686;37.848;2022-12-18T08:10:58;99459.38;;;6.44;52.81
47785;BME280;35233;55.686;37.848;2022-12-18T08:13:24;99467.19;;;6.49;52.89
47785;BME280;35233;55.686;37.848;2022-12-18T08:16:02;99480.28;;;6.50;52.92
47785;BME280;35233;55.686;37.848;2022-12-18T08:18:28;99466.34;;;6.47;53.12
47785;BME280;35233;55.686;37.848;2022-12-18T08:20:54;99490.78;;;6.52;53.36
47785;BME280;35233;55.686;37.848;2022-12-18T08:23:21;99488.25;;;6.43;53.41
47785;BME280;35233;55.686;37.848;2022-12-18T08:25:46;99503.94;;;6.49;52.75
47785;BME280;35233;55.686;37.848;2022-12-18T08:28:12;99501.22;;;6.55;53.29
47785;BME280;35233;55.686;37.848;2022-12-18T08:30:38;99517.91;;;6.49;53.70
47785;BME280;35233;55.686;37.848;2022-12-18T08:33:04;99529.28;;;6.50;53.77
47785;BME280;35233;55.686;37.848;2022-12-18T08:35:30;99515.25;;;6.51;53.52
47785;BME280;35233;55.686;37.848;2022-12-18T08:37:55;99524.84;;;6.53;53.42
47785;BME280;35233;55.686;37.848;2022-12-18T08:40:21;99524.94;;;6.49;53.50
47785;BME280;35233;55.686;37.848;2022-12-18T08:42:47;99487.56;;;6.30;53.51
47785;BME280;35233;55.686;37.848;2022-12-18T08:45:33;99525.75;;;6.51;53.02
47785;BME280;35233;55.686;37.848;2022-12-18T08:47:58;99527.47;;;6.55;53.64
47785;BME280;35233;55.686;37.848;2022-12-18T08:50:24;99528.28;;;6.58;52.80
47785;BME280;35233;55.686;37.848;2022-12-18T08:52:50;99541.41;;;6.57;53.01
47785;BME280;35233;55.686;37.848;2022-12-18T08:55:15;99545.78;;;6.56;53.74
47785;BME280;35233;55.686;37.848;2022-12-18T08:57:41;99552.75;;;6.59;53.34
47785;BME280;35233;55.686;37.848;2022-12-18T09:00:13;99548.38;;;6.61;53.46
47785;BME280;35233;55.686;37.848;2022-12-18T09:02:38;99551.03;;;6.58;53.70
47785;BME280;35233;55.686;37.848;2022-12-18T09:05:04;99551.88;;;6.60;53.83
47785;BME280;35233;55.686;37.848;2022-12-18T09:07:30;99546.63;;;6.60;53.72
47785;BME280;35233;55.686;37.848;2022-12-18T09:09:56;99554.44;;;6.65;53.68
47785;BME280;35233;55.686;37.848;2022-12-18T09:12:21;99549.19;;;6.65;53.67
47785;BME280;35233;55.686;37.848;2022-12-18T09:14:47;99547.56;;;7.15;52.19
47785;BME280;35233;55.686;37.848;2022-12-18T09:17:12;99554.97;;;6.90;53.32
47785;BME280;35233;55.686;37.848;2022-12-18T09:19:38;99562.16;;;6.75;53.78
47785;BME280;35233;55.686;37.848;2022-12-18T09:22:03;99571.75;;;6.78;53.76
47785;BME280;35233;55.686;37.848;2022-12-18T09:24:29;99563.13;;;6.68;53.54
47785;BME280;35233;55.686;37.848;2022-12-18T09:26:54;99581.59;;;6.64;53.81
47785;BME280;35233;55.686;37.848;2022-12-18T09:29:20;99599.78;;;6.74;53.70
47785;BME280;35233;55.686;37.848;2022-12-18T09:31:47;99591.91;;;6.74;53.24
47785;BME280;35233;55.686;37.848;2022-12-18T09:34:15;99599.75;;;6.79;53.49
47785;BME280;35233;55.686;37.848;2022-12-18T09:36:47;99598.88;;;6.78;53.84
47785;BME280;35233;55.686;37.848;2022-12-18T09:39:12;99604.13;;;6.78;53.71
47785;BME280;35233;55.686;37.848;2022-12-18T09:41:48;99590.38;;;7.74;57.39
47785;BME280;35233;55.686;37.848;2022-12-18T09:44:25;99600.19;;;9.35;51.18
47785;BME280;35233;55.686;37.848;2022-12-18T09:46:53;99598.88;;;7.88;52.21
47785;BME280;35233;55.686;37.848;2022-12-18T09:49:23;99589.44;;;7.24;53.14
47785;BME280;35233;55.686;37.848;2022-12-18T09:52:02;99618.44;;;7.19;53.47
47785;BME280;35233;55.686;37.848;2022-12-18T09:54:39;99596.84;;;6.97;53.62
47785;BME280;35233;55.686;37.848;2022-12-18T09:57:05;99615.19;;;7.00;53.68
47785;BME280;35233;55.686;37.848;2022-12-18T09:59:38;99603.13;;;6.87;54.10
47785;BME280;35233;55.686;37.848;2022-12-18T10:02:25;99597.06;;;6.84;53.55
47785;BME280;35233;55.686;37.848;2022-12-18T10:05:13;99619.72;;;6.92;54.42
47785;BME280;35233;55.686;37.848;2022-12-18T10:08:11;99632.00;;;6.89;53.52
47785;BME280;35233;55.686;37.848;2022-12-18T10:10:53;99627.63;;;6.86;53.98
47785;BME280;35233;55.686;37.848;2022-12-18T10:21:01;99634.75;;;6.79;54.01
47785;BME280;35233;55.686;37.848;2022-12-18T10:23:49;99645.16;;;6.86;53.88
47785;BME280;35233;55.686;37.848;2022-12-18T10:26:18;99642.66;;;6.76;54.15
47785;BME280;35233;55.686;37.848;2022-12-18T10:28:47;99625.22;;;6.72;54.76
47785;BME280;35233;55.686;37.848;2022-12-18T10:31:21;99632.16;;;6.78;55.14
47785;BME280;35233;55.686;37.848;2022-12-18T10:33:47;99635.63;;;6.78;54.17
47785;BME280;35233;55.686;37.848;2022-12-18T10:36:13;99618.16;;;6.76;54.76
47785;BME280;35233;55.686;37.848;2022-12-18T10:38:38;99618.16;;;6.74;54.59
47785;BME280;35233;55.686;37.848;2022-12-18T10:43:44;99645.25;;;6.81;54.16
47785;BME280;35233;55.686;37.848;2022-12-18T10:48:48;99656.69;;;6.74;54.68
47785;BME280;35233;55.686;37.848;2022-12-18T10:51:35;99649.72;;;6.71;55.20
47785;BME280;35233;55.686;37.848;2022-12-18T10:54:27;99670.69;;;6.74;54.34
47785;BME280;35233;55.686;37.848;2022-12-18T10:57:14;99662.84;;;6.71;54.28
47785;BME280;35233;55.686;37.848;2022-12-18T10:59:53;99687.25;;;6.79;54.18
47785;BME280;35233;55.686;37.848;2022-12-18T11:02:45;99698.72;;;6.72;54.60
47785;BME280;35233;55.686;37.848;2022-12-18T11:05:33;99706.59;;;6.72;55.21
47785;BME280;35233;55.686;37.848;2022-12-18T11:08:02;99718.88;;;6.70;54.51
47785;BME280;35233;55.686;37.848;2022-12-18T11:10:32;99719.78;;;6.69;54.34
47785;BME280;35233;55.686;37.848;2022-12-18T11:13:19;99721.50;;;6.69;55.42
47785;BME280;35233;55.686;37.848;2022-12-18T11:15:46;99739.03;;;6.67;54.76
47785;BME280;35233;55.686;37.848;2022-12-18T11:18:33;99722.41;;;6.68;55.20
47785;BME280;35233;55.686;37.848;2022-12-18T11:21:06;99721.50;;;6.69;54.80
47785;BME280;35233;55.686;37.848;2022-12-18T11:23:34;99722.41;;;6.68;55.35
47785;BME280;35233;55.686;37.848;2022-12-18T11:26:03;99726.81;;;6.64;55.34
47785;BME280;35233;55.686;37.848;2022-12-18T11:31:23;99723.34;;;6.64;55.18
47785;BME280;35233;55.686;37.848;2022-12-18T11:36:33;99732.06;;;6.63;54.86
47785;BME280;35233;55.686;37.848;2022-12-18T11:39:07;99738.22;;;6.60;55.13
47785;BME280;35233;55.686;37.848;2022-12-18T11:41:47;99732.13;;;6.58;55.05
47785;BME280;35233;55.686;37.848;2022-12-18T11:45:00;99742.63;;;6.58;55.40
47785;BME280;35233;55.686;37.848;2022-12-18T11:47:55;99743.50;;;6.58;55.22
47785;BME280;35233;55.686;37.848;2022-12-18T11:50:26;99749.69;;;6.54;55.51
47785;BME280;35233;55.686;37.848;2022-12-18T11:52:53;99752.31;;;6.51;55.65
47785;BME280;35233;55.686;37.848;2022-12-18T11:56:00;99768.06;;;6.53;55.74
47785;BME280;35233;55.686;37.848;2022-12-18T11:58:42;99769.88;;;6.46;55.49
47785;BME280;35233;55.686;37.848;2022-12-18T12:15:50;99804.84;;;6.45;55.11
47785;BME280;35233;55.686;37.848;2022-12-18T12:18:56;99823.28;;;6.41;55.39
47785;BME280;35233;55.686;37.848;2022-12-18T12:27:26;99818.91;;;6.40;55.23
47785;BME280;35233;55.686;37.848;2022-12-18T12:38:13;99840.72;;;6.45;54.94
47785;BME280;35233;55.686;37.848;2022-12-18T12:40:47;99840.75;;;6.42;54.82
47785;BME280;35233;55.686;37.848;2022-12-18T12:43:38;99842.53;;;6.37;54.66
47785;BME280;35233;55.686;37.848;2022-12-18T12:46:09;99843.44;;;6.37;54.79
47785;BME280;35233;55.686;37.848;2022-12-18T12:51:17;99846.09;;;6.28;55.28
47785;BME280;35233;55.686;37.848;2022-12-18T12:53:44;99870.53;;;6.38;55.07
47785;BME280;35233;55.686;37.848;2022-12-18T12:56:13;99868.84;;;6.29;55.38
47785;BME280;35233;55.686;37.848;2022-12-18T13:07:01;99889.88;;;6.24;55.14
47785;BME280;35233;55.686;37.848;2022-12-18T13:09:31;99901.19;;;6.32;55.02
47785;BME280;35233;55.686;37.848;2022-12-18T13:12:03;99908.22;;;6.29;54.97
47785;BME280;35233;55.686;37.848;2022-12-18T13:14:48;99905.66;;;6.20;55.09
47785;BME280;35233;55.686;37.848;2022-12-18T13:22:22;99919.72;;;6.05;55.39
47785;BME280;35233;55.686;37.848;2022-12-18T13:24:48;99909.19;;;6.09;55.19
47785;BME280;35233;55.686;37.848;2022-12-18T13:35:52;99927.53;;;6.16;55.54
47785;BME280;35233;55.686;37.848;2022-12-18T13:38:38;99941.56;;;6.08;55.45
47785;BME280;35233;55.686;37.848;2022-12-18T13:41:23;99959.88;;;6.18;55.78
47785;BME280;35233;55.686;37.848;2022-12-18T13:43:49;99954.16;;;6.87;60.34
47785;BME280;35233;55.686;37.848;2022-12-18T13:46:24;99956.91;;;11.36;52.16
47785;BME280;35233;55.686;37.848;2022-12-18T13:49:06;99951.06;;;12.18;47.21
47785;BME280;35233;55.686;37.848;2022-12-18T13:51:47;99964.97;;;12.83;45.33
47785;BME280;35233;55.686;37.848;2022-12-18T13:54:37;99959.59;;;13.11;44.08
47785;BME280;35233;55.686;37.848;2022-12-18T13:57:14;99968.19;;;13.46;42.81
47785;BME280;35233;55.686;37.848;2022-12-18T13:59:51;99983.50;;;13.63;42.11
47785;BME280;35233;55.686;37.848;2022-12-18T14:02:21;99976.25;;;13.68;41.52
47785;BME280;35233;55.686;37.848;2022-12-18T14:04:47;99985.69;;;13.76;40.93
47785;BME280;35233;55.686;37.848;2022-12-18T14:07:21;99991.06;;;13.98;40.60
47785;BME280;35233;55.686;37.848;2022-12-18T14:10:11;100009.94;;;11.31;45.92
47785;BME280;35233;55.686;37.848;2022-12-18T14:12:38;100012.72;;;9.62;49.95
47785;BME280;35233;55.686;37.848;2022-12-18T14:17:57;100038.91;;;8.68;51.11
47785;BME280;35233;55.686;37.848;2022-12-18T14:20:25;100034.00;;;8.42;51.67
47785;BME280;35233;55.686;37.848;2022-12-18T14:22:51;100034.75;;;8.51;51.72
47785;BME280;35233;55.686;37.848;2022-12-18T14:25:27;100045.66;;;8.21;52.29
47785;BME280;35233;55.686;37.848;2022-12-18T14:28:04;100051.97;;;8.03;52.24
47785;BME280;35233;55.686;37.848;2022-12-18T14:30:40;100052.19;;;7.84;52.72
47785;BME280;35233;55.686;37.848;2022-12-18T14:33:18;100051.44;;;7.73;52.69
47785;BME280;35233;55.686;37.848;2022-12-18T14:36:01;100036.78;;;7.47;53.02
47785;BME280;35233;55.686;37.848;2022-12-18T14:41:05;100062.38;;;7.30;52.48
47785;BME280;35233;55.686;37.848;2022-12-18T14:43:36;100074.63;;;7.30;52.47
47785;BME280;35233;55.686;37.848;2022-12-18T14:46:04;100079.94;;;7.23;52.64
47785;BME280;35233;55.686;37.848;2022-12-18T14:48:38;100081.72;;;7.18;52.80
47785;BME280;35233;55.686;37.848;2022-12-18T14:53:44;100092.25;;;7.12;52.79
47785;BME280;35233;55.686;37.848;2022-12-18T14:58:47;100119.44;;;7.10;52.91
47785;BME280;35233;55.686;37.848;2022-12-18T15:01:44;100112.50;;;6.98;53.31
47785;BME280;35233;55.686;37.848;2022-12-18T15:04:38;100123.09;;;6.87;51.93
47785;BME280;35233;55.686;37.848;2022-12-18T15:07:23;100118.75;;;6.82;52.47